Time,TemperatureF,DewpointF,PressureIn,WindDirection,WindDirectionDegrees,WindSpeedMPH,WindSpeedGustMPH,Humidity,HourlyPrecipIn,Conditions,Clouds,dailyrainin,SoftwareType,DateUTC
2013-07-21 00:04:00,61.5,51.6,29.79,North,355,0.0,3.0,70,0.00,,---,0.00,VWS V14.01,2013-07-21 07:04:00,
2013-07-21 00:09:00,61.5,51.6,29.80,North,355,1.0,3.0,70,0.00,,---,0.00,VWS V14.01,2013-07-21 07:09:00,
2013-07-21 00:14:00,61.4,51.5,29.76,North,355,2.0,4.0,70,0.00,,---,0.00,VWS V14.01,2013-07-21 07:14:00,
2013-07-21 00:19:00,61.3,51.5,29.80,North,355,1.0,4.0,70,0.00,,---,0.00,VWS V14.01,2013-07-21 07:19:00,
2013-07-21 00:24:00,61.0,51.5,29.79,North,355,2.0,4.0,71,0.00,,---,0.00,VWS V14.01,2013-07-21 07:24:00,
2013-07-21 00:29:00,60.9,51.5,29.78,North,355,3.0,6.0,71,0.00,,---,0.00,VWS V14.01,2013-07-21 07:29:00,
2013-07-21 00:35:00,60.5,51.1,29.79,North,0,2.0,7.0,71,0.00,,---,0.00,VWS V14.01,2013-07-21 07:35:00,
2013-07-21 00:40:00,60.4,51.0,29.78,North,0,2.0,7.0,71,0.00,,---,0.00,VWS V14.01,2013-07-21 07:40:00,
2013-07-21 00:45:00,60.0,51.0,29.77,North,0,1.0,7.0,72,0.00,,---,0.00,VWS V14.01,2013-07-21 07:45:00,
2013-07-21 00:50:00,59.9,50.9,29.77,North,0,0.0,7.0,72,0.00,,---,0.00,VWS V14.01,2013-07-21 07:50:00,
2013-07-21 00:55:00,59.7,50.7,29.79,North,0,1.0,7.0,72,0.00,,---,0.00,VWS V14.01,2013-07-21 07:55:00,
2013-07-21 01:00:00,59.7,51.0,29.79,North,359,2.0,3.0,73,0.00,,---,0.00,VWS V14.01,2013-07-21 08:00:00,
2013-07-21 01:05:00,59.6,51.0,29.78,North,359,0.0,3.0,73,0.00,,---,0.00,VWS V14.01,2013-07-21 08:05:00,
2013-07-21 01:10:00,59.6,51.0,29.78,North,0,0.0,3.0,73,0.00,,---,0.00,VWS V14.01,2013-07-21 08:10:00,
2013-07-21 01:15:00,59.4,50.8,29.78,North,0,0.0,3.0,73,0.00,,---,0.00,VWS V14.01,2013-07-21 08:15:00,
2013-07-21 01:20:00,59.4,51.1,29.78,North,0,0.0,3.0,74,0.00,,---,0.00,VWS V14.01,2013-07-21 08:20:00,
2013-07-21 01:25:00,59.3,51.0,29.78,North,0,0.0,3.0,74,0.00,,---,0.00,VWS V14.01,2013-07-21 08:25:00,
2013-07-21 01:30:00,59.1,50.8,29.76,North,359,2.0,2.0,74,0.00,,---,0.00,VWS V14.01,2013-07-21 08:30:00,
2013-07-21 01:35:00,58.8,50.5,29.78,North,0,1.0,4.0,74,0.00,,---,0.00,VWS V14.01,2013-07-21 08:35:00,
2013-07-21 01:40:00,58.5,50.2,29.77,North,359,3.0,5.0,74,0.00,,---,0.00,VWS V14.01,2013-07-21 08:40:00,
2013-07-21 01:45:00,58.2,50.3,29.77,North,359,1.0,5.0,75,0.00,,---,0.00,VWS V14.01,2013-07-21 08:45:00,
2013-07-21 01:50:00,58.1,50.2,29.77,North,0,2.0,5.0,75,0.00,,---,0.00,VWS V14.01,2013-07-21 08:50:00,
2013-07-21 01:55:00,57.7,50.2,29.77,North,0,1.0,5.0,76,0.00,,---,0.00,VWS V14.01,2013-07-21 08:55:00,
2013-07-21 02:01:00,57.6,50.1,29.76,North,0,1.0,2.0,76,0.00,,---,0.00,VWS V14.01,2013-07-21 09:01:00,
2013-07-21 02:06:00,57.4,49.9,29.76,North,0,3.0,3.0,76,0.00,,---,0.00,VWS V14.01,2013-07-21 09:06:00,
2013-07-21 02:11:00,57.2,50.1,29.80,North,0,1.0,4.0,77,0.00,,---,0.00,VWS V14.01,2013-07-21 09:11:00,
2013-07-21 02:16:00,57.0,49.9,29.78,North,0,1.0,4.0,77,0.00,,---,0.00,VWS V14.01,2013-07-21 09:16:00,
2013-07-21 02:21:00,56.8,49.7,29.77,North,0,1.0,4.0,77,0.00,,---,0.00,VWS V14.01,2013-07-21 09:21:00,
2013-07-21 02:26:00,56.9,50.1,29.76,North,0,2.0,5.0,78,0.00,,---,0.00,VWS V14.01,2013-07-21 09:26:00,
2013-07-21 02:31:00,56.6,50.2,29.75,North,355,2.0,5.0,79,0.00,,---,0.00,VWS V14.01,2013-07-21 09:31:00,
2013-07-21 02:36:00,56.2,49.8,29.77,North,357,2.0,5.0,79,0.00,,---,0.00,VWS V14.01,2013-07-21 09:36:00,
2013-07-21 02:41:00,56.2,50.1,29.77,North,355,1.0,5.0,80,0.00,,---,0.00,VWS V14.01,2013-07-21 09:41:00,
2013-07-21 02:46:00,55.9,49.8,29.75,North,356,2.0,5.0,80,0.00,,---,0.00,VWS V14.01,2013-07-21 09:46:00,
2013-07-21 02:51:00,55.8,50.1,29.78,NNW,330,2.0,5.0,81,0.00,,---,0.00,VWS V14.01,2013-07-21 09:51:00,
2013-07-21 02:56:00,55.7,50.3,29.75,NNW,333,4.0,5.0,82,0.00,,---,0.00,VWS V14.01,2013-07-21 09:56:00,
2013-07-21 03:01:00,55.5,50.1,29.78,NNW,333,1.0,4.0,82,0.00,,---,0.00,VWS V14.01,2013-07-21 10:01:00,
2013-07-21 03:06:00,55.5,50.1,29.76,NNW,333,2.0,5.0,82,0.00,,---,0.00,VWS V14.01,2013-07-21 10:06:00,
2013-07-21 03:11:00,55.5,50.1,29.77,NNW,333,3.0,5.0,82,0.00,,---,0.00,VWS V14.01,2013-07-21 10:11:00,
2013-07-21 03:16:00,55.6,50.5,29.77,NNW,333,1.0,5.0,83,0.00,,---,0.00,VWS V14.01,2013-07-21 10:16:00,
2013-07-21 03:22:00,55.5,50.1,29.76,NNW,333,1.0,5.0,82,0.00,,---,0.00,VWS V14.01,2013-07-21 10:22:00,
2013-07-21 03:27:00,55.5,50.4,29.78,NNW,333,4.0,5.0,83,0.00,,---,0.00,VWS V14.01,2013-07-21 10:27:00,
2013-07-21 03:32:00,55.5,50.4,29.78,NNW,333,1.0,2.0,83,0.00,,---,0.00,VWS V14.01,2013-07-21 10:32:00,
2013-07-21 03:37:00,55.5,50.1,29.75,NNW,333,0.0,2.0,82,0.00,,---,0.00,VWS V14.01,2013-07-21 10:37:00,
2013-07-21 03:42:00,55.6,50.2,29.75,NNW,333,0.0,2.0,82,0.00,,---,0.00,VWS V14.01,2013-07-21 10:42:00,
2013-07-21 03:47:00,55.6,50.2,29.75,NNW,333,0.0,3.0,82,0.00,,---,0.00,VWS V14.01,2013-07-21 10:47:00,
2013-07-21 03:52:00,55.7,50.3,29.75,NNW,333,0.0,3.0,82,0.00,,---,0.00,VWS V14.01,2013-07-21 10:52:00,
2013-07-21 03:57:00,55.6,50.2,29.77,NNW,333,0.0,3.0,82,0.00,,---,0.00,VWS V14.01,2013-07-21 10:57:00,
2013-07-21 04:02:00,55.8,50.4,29.77,NNW,333,1.0,2.0,82,0.00,,---,0.00,VWS V14.01,2013-07-21 11:02:00,
2013-07-21 04:07:00,55.8,50.4,29.76,NNW,333,0.0,3.0,82,0.00,,---,0.00,VWS V14.01,2013-07-21 11:07:00,
2013-07-21 04:12:00,55.8,50.4,29.75,NNW,333,0.0,3.0,82,0.00,,---,0.00,VWS V14.01,2013-07-21 11:12:00,
2013-07-21 04:17:00,55.8,50.1,29.77,NNW,333,0.0,3.0,81,0.00,,---,0.00,VWS V14.01,2013-07-21 11:17:00,
2013-07-21 04:22:00,55.8,50.1,29.77,NNW,333,0.0,3.0,81,0.00,,---,0.00,VWS V14.01,2013-07-21 11:22:00,
2013-07-21 04:27:00,55.8,50.4,29.76,NNW,333,0.0,3.0,82,0.00,,---,0.00,VWS V14.01,2013-07-21 11:27:00,
2013-07-21 04:32:00,55.9,50.5,29.78,NNW,333,0.0,3.0,82,0.00,,---,0.00,VWS V14.01,2013-07-21 11:32:00,
2013-07-21 04:37:00,55.8,50.4,29.77,NNW,333,0.0,3.0,82,0.00,,---,0.00,VWS V14.01,2013-07-21 11:37:00,
2013-07-21 04:42:00,55.8,50.1,29.75,NNW,333,0.0,3.0,81,0.00,,---,0.00,VWS V14.01,2013-07-21 11:42:00,
2013-07-21 04:48:00,55.8,50.4,29.75,NNW,333,0.0,3.0,82,0.00,,---,0.00,VWS V14.01,2013-07-21 11:48:00,
2013-07-21 04:53:00,55.6,50.2,29.77,NNW,333,0.0,3.0,82,0.00,,---,0.00,VWS V14.01,2013-07-21 11:53:00,
2013-07-21 04:58:00,55.6,49.9,29.78,NNW,333,0.0,3.0,81,0.00,,---,0.00,VWS V14.01,2013-07-21 11:58:00,
2013-07-21 05:03:00,55.6,50.2,29.75,NNW,333,0.0,3.0,82,0.00,,---,0.00,VWS V14.01,2013-07-21 12:03:00,
2013-07-21 05:08:00,55.6,50.2,29.75,NNW,333,0.0,3.0,82,0.00,,---,0.00,VWS V14.01,2013-07-21 12:08:00,
2013-07-21 05:13:00,55.5,50.1,29.77,NNW,333,0.0,3.0,82,0.00,,---,0.00,VWS V14.01,2013-07-21 12:13:00,
2013-07-21 05:18:00,55.5,50.4,29.77,NNW,333,0.0,3.0,83,0.00,,---,0.00,VWS V14.01,2013-07-21 12:18:00,
2013-07-21 05:23:00,55.5,50.4,29.79,NNW,333,0.0,3.0,83,0.00,,---,0.00,VWS V14.01,2013-07-21 12:23:00,
2013-07-21 05:28:00,55.5,50.4,29.76,NNW,333,0.0,3.0,83,0.00,,---,0.00,VWS V14.01,2013-07-21 12:28:00,
2013-07-21 05:33:00,55.5,50.4,29.80,NNW,333,0.0,3.0,83,0.00,,---,0.00,VWS V14.01,2013-07-21 12:33:00,
2013-07-21 05:38:00,55.3,50.2,29.77,NNW,333,1.0,3.0,83,0.00,,---,0.00,VWS V14.01,2013-07-21 12:38:00,
2013-07-21 05:43:00,55.4,50.3,29.80,NNW,333,2.0,3.0,83,0.00,,---,0.00,VWS V14.01,2013-07-21 12:43:00,
2013-07-21 05:48:00,55.3,50.2,29.79,NNW,333,0.0,3.0,83,0.00,,---,0.00,VWS V14.01,2013-07-21 12:48:00,
2013-07-21 05:53:00,55.4,50.3,29.79,NNW,333,0.0,3.0,83,0.00,,---,0.00,VWS V14.01,2013-07-21 12:53:00,
2013-07-21 05:59:00,55.4,50.3,29.77,NNW,333,0.0,3.0,83,0.00,,---,0.00,VWS V14.01,2013-07-21 12:59:00,
2013-07-21 06:04:00,55.3,50.2,29.80,NNW,333,0.0,1.0,83,0.00,,---,0.00,VWS V14.01,2013-07-21 13:04:00,
2013-07-21 06:09:00,55.3,50.2,29.80,NNW,333,0.0,1.0,83,0.00,,---,0.00,VWS V14.01,2013-07-21 13:09:00,
2013-07-21 06:14:00,55.4,50.3,29.80,NNW,333,0.0,1.0,83,0.00,,---,0.00,VWS V14.01,2013-07-21 13:14:00,
2013-07-21 06:19:00,55.4,50.3,29.80,NNW,333,0.0,1.0,83,0.00,,---,0.00,VWS V14.01,2013-07-21 13:19:00,
2013-07-21 06:24:00,55.4,50.7,29.76,NNW,333,1.0,3.0,84,0.00,,---,0.00,VWS V14.01,2013-07-21 13:24:00,
2013-07-21 06:29:00,55.3,50.2,29.80,NNW,333,2.0,3.0,83,0.00,,---,0.00,VWS V14.01,2013-07-21 13:29:00,
2013-07-21 06:34:00,55.3,50.2,29.78,NNW,333,1.0,2.0,83,0.00,,---,0.00,VWS V14.01,2013-07-21 13:34:00,
2013-07-21 06:39:00,55.4,50.3,29.81,NNW,333,0.0,3.0,83,0.00,,---,0.00,VWS V14.01,2013-07-21 13:39:00,
2013-07-21 06:44:00,55.3,50.2,29.79,NNW,333,0.0,3.0,83,0.00,,---,0.00,VWS V14.01,2013-07-21 13:44:00,
2013-07-21 06:49:00,55.4,50.7,29.79,NNW,333,0.0,3.0,84,0.00,,---,0.00,VWS V14.01,2013-07-21 13:49:00,
2013-07-21 06:54:00,55.3,50.9,29.76,NNW,333,0.0,3.0,85,0.00,,---,0.00,VWS V14.01,2013-07-21 13:54:00,
2013-07-21 06:59:00,55.6,51.2,29.78,NNW,333,0.0,3.0,85,0.00,,---,0.00,VWS V14.01,2013-07-21 13:59:00,
2013-07-21 07:04:00,55.6,51.2,29.81,NNW,333,1.0,2.0,85,0.00,,---,0.00,VWS V14.01,2013-07-21 14:04:00,
2013-07-21 07:09:00,55.8,51.4,29.80,NNW,333,0.0,2.0,85,0.00,,---,0.00,VWS V14.01,2013-07-21 14:09:00,
2013-07-21 07:14:00,56.0,51.6,29.81,NNW,333,0.0,2.0,85,0.00,,---,0.00,VWS V14.01,2013-07-21 14:14:00,
2013-07-21 07:20:00,56.1,51.7,29.78,NNW,333,0.0,2.0,85,0.00,,---,0.00,VWS V14.01,2013-07-21 14:20:00,
2013-07-21 07:25:00,56.3,51.9,29.79,NNW,333,0.0,3.0,85,0.00,,---,0.00,VWS V14.01,2013-07-21 14:25:00,
2013-07-21 07:30:00,56.4,52.0,29.81,NNW,333,3.0,3.0,85,0.00,,---,0.00,VWS V14.01,2013-07-21 14:30:00,
2013-07-21 07:35:00,56.5,51.7,29.81,NNW,333,1.0,4.0,84,0.00,,---,0.00,VWS V14.01,2013-07-21 14:35:00,
2013-07-21 07:40:00,56.7,51.9,29.78,NNW,333,3.0,4.0,84,0.00,,---,0.00,VWS V14.01,2013-07-21 14:40:00,
2013-07-21 07:45:00,56.8,51.7,29.80,NNW,333,1.0,4.0,83,0.00,,---,0.00,VWS V14.01,2013-07-21 14:45:00,
2013-07-21 07:50:00,57.0,52.2,29.81,NNW,333,0.0,4.0,84,0.00,,---,0.00,VWS V14.01,2013-07-21 14:50:00,
2013-07-21 07:55:00,57.3,52.2,29.81,NNW,333,2.0,4.0,83,0.00,,---,0.00,VWS V14.01,2013-07-21 14:55:00,
2013-07-21 08:00:00,57.6,52.5,29.80,NNW,333,1.0,1.0,83,0.00,,---,0.00,VWS V14.01,2013-07-21 15:00:00,
2013-07-21 08:05:00,58.0,52.9,29.80,West,273,1.0,4.0,83,0.00,,---,0.00,VWS V14.01,2013-07-21 15:05:00,
2013-07-21 08:10:00,58.4,52.9,29.80,West,273,0.0,4.0,82,0.00,,---,0.00,VWS V14.01,2013-07-21 15:10:00,
2013-07-21 08:15:00,58.6,53.1,29.77,West,273,0.0,4.0,82,0.00,,---,0.00,VWS V14.01,2013-07-21 15:15:00,
2013-07-21 08:20:00,59.1,53.6,29.80,West,273,3.0,4.0,82,0.00,,---,0.00,VWS V14.01,2013-07-21 15:20:00,
2013-07-21 08:25:00,59.4,53.2,29.80,West,273,0.0,4.0,80,0.00,,---,0.00,VWS V14.01,2013-07-21 15:25:00,
2013-07-21 08:31:00,59.7,53.2,29.79,West,273,0.0,0.0,79,0.00,,---,0.00,VWS V14.01,2013-07-21 15:31:00,
2013-07-21 08:36:00,60.2,53.3,29.80,West,273,0.0,3.0,78,0.00,,---,0.00,VWS V14.01,2013-07-21 15:36:00,
2013-07-21 08:41:00,60.5,53.6,29.79,West,273,0.0,3.0,78,0.00,,---,0.00,VWS V14.01,2013-07-21 15:41:00,
2013-07-21 08:46:00,61.0,54.1,29.80,West,273,0.0,3.0,78,0.00,,---,0.00,VWS V14.01,2013-07-21 15:46:00,
2013-07-21 08:51:00,61.4,54.5,29.80,West,273,1.0,3.0,78,0.00,,---,0.00,VWS V14.01,2013-07-21 15:51:00,
2013-07-21 08:56:00,61.9,54.3,29.79,West,273,0.0,3.0,76,0.00,,---,0.00,VWS V14.01,2013-07-21 15:56:00,
2013-07-21 09:01:00,62.2,54.5,29.80,WNW,283,0.0,1.0,76,0.00,,---,0.00,VWS V14.01,2013-07-21 16:01:00,
2013-07-21 09:06:00,62.5,54.5,29.82,WNW,283,0.0,1.0,75,0.00,,---,0.00,VWS V14.01,2013-07-21 16:06:00,
2013-07-21 09:11:00,63.0,55.0,29.82,WNW,283,0.0,3.0,75,0.00,,---,0.00,VWS V14.01,2013-07-21 16:11:00,
2013-07-21 09:16:00,63.6,55.2,29.83,WNW,283,3.0,5.0,74,0.00,,---,0.00,VWS V14.01,2013-07-21 16:16:00,
2013-07-21 09:21:00,64.1,55.3,29.81,NNW,330,1.0,6.0,73,0.00,,---,0.00,VWS V14.01,2013-07-21 16:21:00,
2013-07-21 09:26:00,64.3,55.5,29.82,NNW,330,3.0,6.0,73,0.00,,---,0.00,VWS V14.01,2013-07-21 16:26:00,
2013-07-21 09:32:00,64.8,55.2,29.81,NNW,332,1.0,3.0,71,0.00,,---,0.00,VWS V14.01,2013-07-21 16:32:00,
2013-07-21 09:37:00,65.1,55.1,29.80,NNW,333,1.0,3.0,70,0.00,,---,0.00,VWS V14.01,2013-07-21 16:37:00,
2013-07-21 09:42:00,65.5,55.9,29.78,NNW,333,2.0,4.0,71,0.00,,---,0.00,VWS V14.01,2013-07-21 16:42:00,
2013-07-21 09:47:00,66.1,55.7,29.79,NNW,332,2.0,4.0,69,0.00,,---,0.00,VWS V14.01,2013-07-21 16:47:00,
2013-07-21 09:52:00,66.6,56.1,29.80,NNW,333,3.0,4.0,69,0.00,,---,0.00,VWS V14.01,2013-07-21 16:52:00,
2013-07-21 09:57:00,67.0,55.7,29.81,NNW,333,3.0,5.0,67,0.00,,---,0.00,VWS V14.01,2013-07-21 16:57:00,
2013-07-21 10:02:00,67.6,55.8,29.81,NNW,333,2.0,4.0,66,0.00,,---,0.00,VWS V14.01,2013-07-21 17:02:00,
2013-07-21 10:07:00,68.4,56.2,29.79,NNW,333,4.0,5.0,65,0.00,,---,0.00,VWS V14.01,2013-07-21 17:07:00,
2013-07-21 10:12:00,69.1,56.0,29.82,NNW,333,4.0,5.0,63,0.00,,---,0.00,VWS V14.01,2013-07-21 17:12:00,
2013-07-21 10:17:00,69.3,55.7,29.79,NNW,334,0.0,5.0,62,0.00,,---,0.00,VWS V14.01,2013-07-21 17:17:00,
2013-07-21 10:22:00,69.5,55.9,29.83,NNW,333,0.0,5.0,62,0.00,,---,0.00,VWS V14.01,2013-07-21 17:22:00,
2013-07-21 10:27:00,69.8,56.7,29.78,NNW,334,4.0,5.0,63,0.00,,---,0.00,VWS V14.01,2013-07-21 17:27:00,
2013-07-21 10:32:00,70.2,55.7,29.82,NNW,333,1.0,5.0,60,0.00,,---,0.00,VWS V14.01,2013-07-21 17:32:00,
2013-07-21 10:37:00,70.4,56.3,29.81,NNW,334,2.0,6.0,61,0.00,,---,0.00,VWS V14.01,2013-07-21 17:37:00,
2013-07-21 10:42:00,70.7,55.7,29.84,NNW,334,2.0,6.0,59,0.00,,---,0.00,VWS V14.01,2013-07-21 17:42:00,
2013-07-21 10:48:00,71.0,56.0,29.78,NNW,334,3.0,6.0,59,0.00,,---,0.00,VWS V14.01,2013-07-21 17:48:00,
2013-07-21 10:53:00,71.3,55.3,29.82,NNW,336,4.0,6.0,57,0.00,,---,0.00,VWS V14.01,2013-07-21 17:53:00,
2013-07-21 10:58:00,71.9,55.9,29.78,NNW,340,2.0,6.0,57,0.00,,---,0.00,VWS V14.01,2013-07-21 17:58:00,
2013-07-21 11:03:00,72.2,55.7,29.79,NNW,329,2.0,5.0,56,0.00,,---,0.00,VWS V14.01,2013-07-21 18:03:00,
2013-07-21 11:08:00,72.5,55.9,29.80,NNW,345,1.0,5.0,56,0.00,,---,0.00,VWS V14.01,2013-07-21 18:08:00,
2013-07-21 11:13:00,72.7,55.6,29.84,North,355,5.0,6.0,55,0.00,,---,0.00,VWS V14.01,2013-07-21 18:13:00,
2013-07-21 11:18:00,72.9,55.8,29.78,NNW,346,1.0,6.0,55,0.00,,---,0.00,VWS V14.01,2013-07-21 18:18:00,
2013-07-21 11:23:00,73.1,56.0,29.80,NNW,333,4.0,6.0,55,0.00,,---,0.00,VWS V14.01,2013-07-21 18:23:00,
2013-07-21 11:28:00,73.4,56.3,29.80,WNW,298,2.0,6.0,55,0.00,,---,0.00,VWS V14.01,2013-07-21 18:28:00,
2013-07-21 11:33:00,73.8,55.1,29.81,NNW,336,2.0,7.0,52,0.00,,---,0.00,VWS V14.01,2013-07-21 18:33:00,
2013-07-21 11:38:00,74.1,54.8,29.78,NNW,341,5.0,7.0,51,0.00,,---,0.00,VWS V14.01,2013-07-21 18:38:00,
2013-07-21 11:43:00,74.5,55.2,29.80,NNW,348,2.0,7.0,51,0.00,,---,0.00,VWS V14.01,2013-07-21 18:43:00,
2013-07-21 11:48:00,74.7,54.8,29.81,North,352,5.0,8.0,50,0.00,,---,0.00,VWS V14.01,2013-07-21 18:48:00,
2013-07-21 11:54:00,75.2,55.3,29.81,NNW,347,2.0,8.0,50,0.00,,---,0.00,VWS V14.01,2013-07-21 18:54:00,
2013-07-21 11:59:00,75.6,56.8,29.81,North,355,1.0,8.0,52,0.00,,---,0.00,VWS V14.01,2013-07-21 18:59:00,
2013-07-21 12:04:00,76.0,55.5,29.81,North,0,3.0,8.0,49,0.00,,---,0.00,VWS V14.01,2013-07-21 19:04:00,
2013-07-21 12:09:00,76.2,55.1,29.78,NW,324,3.0,8.0,48,0.00,,---,0.00,VWS V14.01,2013-07-21 19:09:00,
2013-07-21 12:14:00,76.5,55.4,29.79,North,355,3.0,8.0,48,0.00,,---,0.00,VWS V14.01,2013-07-21 19:14:00,
2013-07-21 12:19:00,77.1,56.5,29.79,North,355,2.0,8.0,49,0.00,,---,0.00,VWS V14.01,2013-07-21 19:19:00,
2013-07-21 12:24:00,77.5,56.3,29.81,North,355,2.0,8.0,48,0.00,,---,0.00,VWS V14.01,2013-07-21 19:24:00,
2013-07-21 12:29:00,77.8,56.6,29.81,North,352,6.0,8.0,48,0.00,,---,0.00,VWS V14.01,2013-07-21 19:29:00,
2013-07-21 12:34:00,78.2,55.8,29.79,North,356,5.0,6.0,46,0.00,,---,0.00,VWS V14.01,2013-07-21 19:34:00,
2013-07-21 12:39:00,78.7,56.2,29.79,North,358,5.0,6.0,46,0.00,,---,0.00,VWS V14.01,2013-07-21 19:39:00,
2013-07-21 12:44:00,79.2,55.4,29.79,NW,320,4.0,6.0,44,0.00,,---,0.00,VWS V14.01,2013-07-21 19:44:00,
2013-07-21 12:49:00,79.9,56.1,29.78,NW,319,1.0,6.0,44,0.00,,---,0.00,VWS V14.01,2013-07-21 19:49:00,
2013-07-21 12:54:00,80.0,56.2,29.80,SW,220,1.0,6.0,44,0.00,,---,0.00,VWS V14.01,2013-07-21 19:54:00,
2013-07-21 12:59:00,80.4,56.5,29.81,West,281,3.0,6.0,44,0.00,,---,0.00,VWS V14.01,2013-07-21 19:59:00,
2013-07-21 13:04:00,80.7,57.4,29.81,West,280,2.0,5.0,45,0.00,,---,0.00,VWS V14.01,2013-07-21 20:04:00,
2013-07-21 13:10:00,80.9,56.3,29.80,WNW,292,2.0,5.0,43,0.00,,---,0.00,VWS V14.01,2013-07-21 20:10:00,
2013-07-21 13:15:00,81.1,57.2,29.79,WNW,291,1.0,5.0,44,0.00,,---,0.00,VWS V14.01,2013-07-21 20:15:00,
2013-07-21 13:20:00,81.4,56.8,29.78,WNW,292,1.0,5.0,43,0.00,,---,0.00,VWS V14.01,2013-07-21 20:20:00,
2013-07-21 13:25:00,81.5,57.5,29.80,WNW,291,0.0,5.0,44,0.00,,---,0.00,VWS V14.01,2013-07-21 20:25:00,
2013-07-21 13:30:00,81.9,55.9,29.80,WNW,291,2.0,2.0,41,0.00,,---,0.00,VWS V14.01,2013-07-21 20:30:00,
2013-07-21 13:35:00,82.2,56.2,29.78,WNW,283,0.0,5.0,41,0.00,,---,0.00,VWS V14.01,2013-07-21 20:35:00,
2013-07-21 13:40:00,82.6,55.9,29.77,WNW,283,2.0,5.0,40,0.00,,---,0.00,VWS V14.01,2013-07-21 20:40:00,
2013-07-21 13:45:00,83.0,56.9,29.79,NNW,339,3.0,7.0,41,0.00,,---,0.00,VWS V14.01,2013-07-21 20:45:00,
2013-07-21 13:50:00,83.0,56.2,29.77,NNW,342,1.0,7.0,40,0.00,,---,0.00,VWS V14.01,2013-07-21 20:50:00,
2013-07-21 13:55:00,83.0,56.2,29.80,West,273,3.0,7.0,40,0.00,,---,0.00,VWS V14.01,2013-07-21 20:55:00,
2013-07-21 14:00:00,82.8,55.3,29.78,NW,326,2.0,7.0,39,0.00,,---,0.00,VWS V14.01,2013-07-21 21:00:00,
2013-07-21 14:05:00,82.7,56.6,29.81,NNW,334,3.0,7.0,41,0.00,,---,0.00,VWS V14.01,2013-07-21 21:05:00,
2013-07-21 14:10:00,82.6,55.9,29.78,North,357,3.0,9.0,40,0.00,,---,0.00,VWS V14.01,2013-07-21 21:10:00,
2013-07-21 14:15:00,83.0,57.6,29.77,North,357,2.0,9.0,42,0.00,,---,0.00,VWS V14.01,2013-07-21 21:15:00,
2013-07-21 14:20:00,83.3,57.2,29.79,NNW,348,2.0,9.0,41,0.00,,---,0.00,VWS V14.01,2013-07-21 21:20:00,
2013-07-21 14:26:00,83.6,57.4,29.77,North,1,4.0,9.0,41,0.00,,---,0.00,VWS V14.01,2013-07-21 21:26:00,
2013-07-21 14:31:00,83.8,56.9,29.80,NNW,336,4.0,9.0,40,0.00,,---,0.00,VWS V14.01,2013-07-21 21:31:00,
2013-07-21 14:36:00,84.0,57.1,29.77,North,357,4.0,9.0,40,0.00,,---,0.00,VWS V14.01,2013-07-21 21:36:00,
2013-07-21 14:41:00,84.0,55.7,29.78,North,353,2.0,9.0,38,0.00,,---,0.00,VWS V14.01,2013-07-21 21:41:00,
2013-07-21 14:46:00,84.3,57.4,29.80,North,354,1.0,9.0,40,0.00,,---,0.00,VWS V14.01,2013-07-21 21:46:00,
2013-07-21 14:51:00,84.8,57.8,29.76,NNW,347,2.0,9.0,40,0.00,,---,0.00,VWS V14.01,2013-07-21 21:51:00,
2013-07-21 14:56:00,85.3,57.6,29.78,NNW,346,3.0,9.0,39,0.00,,---,0.00,VWS V14.01,2013-07-21 21:56:00,
2013-07-21 15:01:00,86.2,57.6,29.79,NNW,346,3.0,5.0,38,0.00,,---,0.00,VWS V14.01,2013-07-21 22:01:00,
2013-07-21 15:06:00,86.3,57.0,29.79,North,359,1.0,5.0,37,0.00,,---,0.00,VWS V14.01,2013-07-21 22:06:00,
2013-07-21 15:11:00,86.7,57.3,29.80,North,357,2.0,6.0,37,0.00,,---,0.00,VWS V14.01,2013-07-21 22:11:00,
2013-07-21 15:16:00,86.7,58.1,29.79,North,0,3.0,7.0,38,0.00,,---,0.00,VWS V14.01,2013-07-21 22:16:00,
2013-07-21 15:21:00,86.4,57.8,29.79,North,359,2.0,7.0,38,0.00,,---,0.00,VWS V14.01,2013-07-21 22:21:00,
2013-07-21 15:26:00,86.7,58.1,29.77,North,0,1.0,7.0,38,0.00,,---,0.00,VWS V14.01,2013-07-21 22:26:00,
2013-07-21 15:32:00,86.8,57.4,29.77,North,0,3.0,4.0,37,0.00,,---,0.00,VWS V14.01,2013-07-21 22:32:00,
2013-07-21 15:37:00,87.0,57.6,29.77,North,353,2.0,7.0,37,0.00,,---,0.00,VWS V14.01,2013-07-21 22:37:00,
2013-07-21 15:42:00,87.1,57.7,29.76,North,0,5.0,8.0,37,0.00,,---,0.00,VWS V14.01,2013-07-21 22:42:00,
2013-07-21 15:47:00,87.3,57.9,29.76,North,359,1.0,8.0,37,0.00,,---,0.00,VWS V14.01,2013-07-21 22:47:00,
2013-07-21 15:52:00,87.2,57.8,29.76,NNW,344,3.0,8.0,37,0.00,,---,0.00,VWS V14.01,2013-07-21 22:52:00,
2013-07-21 15:57:00,87.2,57.8,29.77,North,0,2.0,8.0,37,0.00,,---,0.00,VWS V14.01,2013-07-21 22:57:00,
2013-07-21 16:02:00,87.2,58.5,29.76,North,356,2.0,6.0,38,0.00,,---,0.00,VWS V14.01,2013-07-21 23:02:00,
2013-07-21 16:07:00,87.3,57.9,29.77,North,357,4.0,8.0,37,0.00,,---,0.00,VWS V14.01,2013-07-21 23:07:00,
2013-07-21 16:12:00,87.5,57.3,29.79,North,358,4.0,8.0,36,0.00,,---,0.00,VWS V14.01,2013-07-21 23:12:00,
2013-07-21 16:17:00,87.4,57.2,29.76,North,357,3.0,8.0,36,0.00,,---,0.00,VWS V14.01,2013-07-21 23:17:00,
2013-07-21 16:22:00,87.9,57.6,29.74,North,357,2.0,8.0,36,0.00,,---,0.00,VWS V14.01,2013-07-21 23:22:00,
2013-07-21 16:27:00,88.2,56.3,29.76,North,357,2.0,8.0,34,0.00,,---,0.00,VWS V14.01,2013-07-21 23:27:00,
2013-07-21 16:32:00,88.4,57.3,29.76,North,349,4.0,8.0,35,0.00,,---,0.00,VWS V14.01,2013-07-21 23:32:00,
2013-07-21 16:37:00,88.0,56.9,29.75,North,351,2.0,9.0,35,0.00,,---,0.00,VWS V14.01,2013-07-21 23:37:00,
2013-07-21 16:43:00,87.4,58.0,29.76,North,354,4.0,9.0,37,0.00,,---,0.00,VWS V14.01,2013-07-21 23:43:00,
2013-07-21 16:48:00,86.9,56.8,29.77,NNW,340,2.0,9.0,36,0.00,,---,0.00,VWS V14.01,2013-07-21 23:48:00,
2013-07-21 16:53:00,86.6,56.5,29.75,NNW,345,5.0,9.0,36,0.00,,---,0.00,VWS V14.01,2013-07-21 23:53:00,
2013-07-21 16:58:00,86.6,55.7,29.74,NNW,347,3.0,9.0,35,0.00,,---,0.00,VWS V14.01,2013-07-21 23:58:00,
2013-07-21 17:03:00,86.7,58.1,29.79,NNW,347,2.0,4.0,38,0.00,,---,0.00,VWS V14.01,2013-07-22 00:03:00,
2013-07-21 17:08:00,87.0,56.8,29.76,NNW,347,3.0,5.0,36,0.00,,---,0.00,VWS V14.01,2013-07-22 00:08:00,
2013-07-21 17:13:00,87.0,56.1,29.76,NNW,347,0.0,5.0,35,0.00,,---,0.00,VWS V14.01,2013-07-22 00:13:00,
2013-07-21 17:18:00,87.3,57.9,29.78,NNW,347,2.0,5.0,37,0.00,,---,0.00,VWS V14.01,2013-07-22 00:18:00,
2013-07-21 17:23:00,87.3,57.1,29.74,NNW,347,1.0,5.0,36,0.00,,---,0.00,VWS V14.01,2013-07-22 00:23:00,
2013-07-21 17:28:00,87.5,57.3,29.75,NNW,347,4.0,5.0,36,0.00,,---,0.00,VWS V14.01,2013-07-22 00:28:00,
2013-07-21 17:33:00,87.9,56.9,29.76,NNW,346,6.0,7.0,35,0.00,,---,0.00,VWS V14.01,2013-07-22 00:33:00,
2013-07-21 17:38:00,87.9,56.9,29.75,NNW,343,1.0,7.0,35,0.00,,---,0.00,VWS V14.01,2013-07-22 00:38:00,
2013-07-21 17:43:00,87.8,56.8,29.76,NNW,343,3.0,7.0,35,0.00,,---,0.00,VWS V14.01,2013-07-22 00:43:00,
2013-07-21 17:48:00,87.7,55.9,29.75,NNW,343,2.0,7.0,34,0.00,,---,0.00,VWS V14.01,2013-07-22 00:48:00,
2013-07-21 17:53:00,87.1,56.2,29.75,NNW,343,0.0,7.0,35,0.00,,---,0.00,VWS V14.01,2013-07-22 00:53:00,
2013-07-21 17:59:00,86.5,56.4,29.76,NNW,343,2.0,7.0,36,0.00,,---,0.00,VWS V14.01,2013-07-22 00:59:00,
2013-07-21 18:04:00,85.9,56.6,29.78,NNW,340,3.0,5.0,37,0.00,,---,0.00,VWS V14.01,2013-07-22 01:04:00,
2013-07-21 18:09:00,86.2,57.6,29.77,NNW,333,3.0,5.0,38,0.00,,---,0.00,VWS V14.01,2013-07-22 01:09:00,
2013-07-21 18:14:00,86.1,56.8,29.76,WNW,294,4.0,7.0,37,0.00,,---,0.00,VWS V14.01,2013-07-22 01:14:00,
2013-07-21 18:19:00,86.2,57.6,29.75,WNW,294,4.0,7.0,38,0.00,,---,0.00,VWS V14.01,2013-07-22 01:19:00,
2013-07-21 18:24:00,85.5,56.3,29.76,West,281,2.0,7.0,37,0.00,,---,0.00,VWS V14.01,2013-07-22 01:24:00,
2013-07-21 18:29:00,85.1,56.7,29.77,West,279,2.0,7.0,38,0.00,,---,0.00,VWS V14.01,2013-07-22 01:29:00,
2013-07-21 18:34:00,84.8,57.1,29.75,West,277,2.0,7.0,39,0.00,,---,0.00,VWS V14.01,2013-07-22 01:34:00,
2013-07-21 18:39:00,84.4,56.8,29.75,WSW,239,2.0,7.0,39,0.00,,---,0.00,VWS V14.01,2013-07-22 01:39:00,
2013-07-21 18:44:00,84.0,55.7,29.76,WSW,239,2.0,8.0,38,0.00,,---,0.00,VWS V14.01,2013-07-22 01:44:00,
2013-07-21 18:49:00,83.6,56.8,29.76,WSW,258,1.0,8.0,40,0.00,,---,0.00,VWS V14.01,2013-07-22 01:49:00,
2013-07-21 18:54:00,83.0,55.5,29.77,West,259,1.0,8.0,39,0.00,,---,0.00,VWS V14.01,2013-07-22 01:54:00,
2013-07-21 18:59:00,82.3,55.6,29.78,West,259,1.0,8.0,40,0.00,,---,0.00,VWS V14.01,2013-07-22 01:59:00,
2013-07-21 19:04:00,81.3,55.4,29.76,West,259,0.0,4.0,41,0.00,,---,0.00,VWS V14.01,2013-07-22 02:04:00,
2013-07-21 19:09:00,80.5,55.3,29.79,West,259,4.0,4.0,42,0.00,,---,0.00,VWS V14.01,2013-07-22 02:09:00,
2013-07-21 19:14:00,79.8,55.3,29.78,West,259,1.0,4.0,43,0.00,,---,0.00,VWS V14.01,2013-07-22 02:14:00,
2013-07-21 19:20:00,79.1,55.3,29.78,West,259,0.0,4.0,44,0.00,,---,0.00,VWS V14.01,2013-07-22 02:20:00,
2013-07-21 19:25:00,78.6,54.9,29.78,West,259,2.0,4.0,44,0.00,,---,0.00,VWS V14.01,2013-07-22 02:25:00,
2013-07-21 19:30:00,77.8,54.8,29.77,West,259,3.0,4.0,45,0.00,,---,0.00,VWS V14.01,2013-07-22 02:30:00,
2013-07-21 19:35:00,77.0,54.7,29.80,West,271,2.0,6.0,46,0.00,,---,0.00,VWS V14.01,2013-07-22 02:35:00,
2013-07-21 19:40:00,76.2,54.5,29.76,West,278,2.0,6.0,47,0.00,,---,0.00,VWS V14.01,2013-07-22 02:40:00,
2013-07-21 19:45:00,75.6,54.0,29.77,West,279,1.0,6.0,47,0.00,,---,0.00,VWS V14.01,2013-07-22 02:45:00,
2013-07-21 19:50:00,75.1,54.7,29.80,WNW,282,1.0,7.0,49,0.00,,---,0.00,VWS V14.01,2013-07-22 02:50:00,
2013-07-21 19:55:00,74.7,54.3,29.80,WNW,282,5.0,7.0,49,0.00,,---,0.00,VWS V14.01,2013-07-22 02:55:00,
2013-07-21 20:00:00,74.1,53.7,29.79,WNW,283,0.0,1.0,49,0.00,,---,0.00,VWS V14.01,2013-07-22 03:00:00,
2013-07-21 20:05:00,73.7,53.4,29.78,WNW,290,0.0,8.0,49,0.00,,---,0.00,VWS V14.01,2013-07-22 03:05:00,
2013-07-21 20:10:00,73.3,53.6,29.79,WNW,290,3.0,8.0,50,0.00,,---,0.00,VWS V14.01,2013-07-22 03:10:00,
2013-07-21 20:15:00,72.5,52.8,29.78,WNW,290,3.0,8.0,50,0.00,,---,0.00,VWS V14.01,2013-07-22 03:15:00,
2013-07-21 20:20:00,72.2,53.6,29.81,WNW,290,1.0,8.0,52,0.00,,---,0.00,VWS V14.01,2013-07-22 03:20:00,
2013-07-21 20:25:00,71.9,53.3,29.80,WNW,290,0.0,8.0,52,0.00,,---,0.00,VWS V14.01,2013-07-22 03:25:00,
2013-07-21 20:30:00,71.4,52.9,29.79,WNW,290,2.0,3.0,52,0.00,,---,0.00,VWS V14.01,2013-07-22 03:30:00,
2013-07-21 20:36:00,70.5,52.6,29.80,WNW,293,2.0,6.0,53,0.00,,---,0.00,VWS V14.01,2013-07-22 03:36:00,
2013-07-21 20:41:00,70.1,52.7,29.80,WNW,293,0.0,6.0,54,0.00,,---,0.00,VWS V14.01,2013-07-22 03:41:00,
2013-07-21 20:46:00,69.5,52.6,29.80,WNW,294,0.0,6.0,55,0.00,,---,0.00,VWS V14.01,2013-07-22 03:46:00,
2013-07-21 20:51:00,69.1,52.3,29.82,WNW,294,2.0,7.0,55,0.00,,---,0.00,VWS V14.01,2013-07-22 03:51:00,
2013-07-21 20:56:00,69.0,52.7,29.82,WNW,294,2.0,7.0,56,0.00,,---,0.00,VWS V14.01,2013-07-22 03:56:00,
2013-07-21 21:01:00,68.9,52.6,29.81,WNW,293,0.0,0.0,56,0.00,,---,0.00,VWS V14.01,2013-07-22 04:01:00,
2013-07-21 21:02:00,68.9,53.1,29.79,WNW,293,0.0,3.0,57,0.00,,---,0.00,VWS V14.01,2013-07-22 04:02:00,
2013-07-21 21:07:00,68.5,52.7,29.81,WNW,294,2.0,5.0,57,0.00,,---,0.00,VWS V14.01,2013-07-22 04:07:00,
2013-07-21 21:12:00,68.3,52.5,29.82,WNW,294,1.0,5.0,57,0.00,,---,0.00,VWS V14.01,2013-07-22 04:12:00,
2013-07-21 21:17:00,67.7,52.4,29.83,WNW,293,3.0,5.0,58,0.00,,---,0.00,VWS V14.01,2013-07-22 04:17:00,
2013-07-21 21:22:00,67.5,52.2,29.81,WNW,293,2.0,5.0,58,0.00,,---,0.00,VWS V14.01,2013-07-22 04:22:00,
2013-07-21 21:27:00,67.2,52.4,29.81,WNW,293,3.0,5.0,59,0.00,,---,0.00,VWS V14.01,2013-07-22 04:27:00,
2013-07-21 21:32:00,67.0,52.2,29.81,WNW,293,2.0,3.0,59,0.00,,---,0.00,VWS V14.01,2013-07-22 04:32:00,
2013-07-21 21:37:00,66.7,53.3,29.83,WNW,294,3.0,4.0,62,0.00,,---,0.00,VWS V14.01,2013-07-22 04:37:00,
2013-07-21 21:43:00,66.3,52.5,29.83,WNW,294,0.0,5.0,61,0.00,,---,0.00,VWS V14.01,2013-07-22 04:43:00,
2013-07-21 21:48:00,66.2,53.2,29.84,WNW,294,2.0,5.0,63,0.00,,---,0.00,VWS V14.01,2013-07-22 04:48:00,
2013-07-21 21:53:00,65.8,52.4,29.87,WNW,294,2.0,5.0,62,0.00,,---,0.00,VWS V14.01,2013-07-22 04:53:00,
2013-07-21 21:58:00,65.2,52.3,29.85,WNW,297,0.0,7.0,63,0.00,,---,0.00,VWS V14.01,2013-07-22 04:58:00,
2013-07-21 22:03:00,65.0,52.1,29.84,WNW,297,1.0,5.0,63,0.00,,---,0.00,VWS V14.01,2013-07-22 05:03:00,
2013-07-21 22:08:00,64.9,52.5,29.85,WNW,297,0.0,5.0,64,0.00,,---,0.00,VWS V14.01,2013-07-22 05:08:00,
2013-07-21 22:13:00,64.9,52.5,29.85,WNW,297,1.0,5.0,64,0.00,,---,0.00,VWS V14.01,2013-07-22 05:13:00,
2013-07-21 22:18:00,64.8,52.3,29.84,WNW,297,0.0,5.0,64,0.00,,---,0.00,VWS V14.01,2013-07-22 05:18:00,
2013-07-21 22:23:00,64.5,52.1,29.85,WNW,297,2.0,7.0,64,0.00,,---,0.00,VWS V14.01,2013-07-22 05:23:00,
2013-07-21 22:28:00,64.3,51.9,29.86,WNW,297,1.0,7.0,64,0.00,,---,0.00,VWS V14.01,2013-07-22 05:28:00,
2013-07-21 22:33:00,63.8,51.4,29.85,WNW,303,1.0,7.0,64,0.00,,---,0.00,VWS V14.01,2013-07-22 05:33:00,
2013-07-21 22:38:00,63.4,51.4,29.84,WNW,303,2.0,7.0,65,0.00,,---,0.00,VWS V14.01,2013-07-22 05:38:00,
2013-07-21 22:43:00,63.1,51.6,29.84,NW,304,2.0,7.0,66,0.00,,---,0.00,VWS V14.01,2013-07-22 05:43:00,
2013-07-21 22:48:00,62.9,51.4,29.83,NNW,327,2.0,8.0,66,0.00,,---,0.00,VWS V14.01,2013-07-22 05:48:00,
2013-07-21 22:53:00,62.7,51.6,29.87,NNW,333,4.0,8.0,67,0.00,,---,0.00,VWS V14.01,2013-07-22 05:53:00,
2013-07-21 22:59:00,62.4,51.7,29.86,NNW,333,3.0,8.0,68,0.00,,---,0.00,VWS V14.01,2013-07-22 05:59:00,
2013-07-21 23:04:00,62.3,51.6,29.84,NNW,334,2.0,7.0,68,0.00,,---,0.00,VWS V14.01,2013-07-22 06:04:00,
2013-07-21 23:09:00,61.9,51.2,29.88,NNW,334,3.0,7.0,68,0.00,,---,0.00,VWS V14.01,2013-07-22 06:09:00,
2013-07-21 23:14:00,61.8,51.1,29.86,NNW,334,2.0,7.0,68,0.00,,---,0.00,VWS V14.01,2013-07-22 06:14:00,
2013-07-21 23:19:00,61.4,51.2,29.85,NNW,334,2.0,7.0,69,0.00,,---,0.00,VWS V14.01,2013-07-22 06:19:00,
2013-07-21 23:24:00,61.3,51.5,29.89,NNW,336,3.0,8.0,70,0.00,,---,0.00,VWS V14.01,2013-07-22 06:24:00,
2013-07-21 23:29:00,61.4,51.5,29.85,NNW,336,3.0,8.0,70,0.00,,---,0.00,VWS V14.01,2013-07-22 06:29:00,
2013-07-21 23:34:00,61.3,51.5,29.88,NNW,336,2.0,5.0,70,0.00,,---,0.00,VWS V14.01,2013-07-22 06:34:00,
2013-07-21 23:39:00,61.3,51.5,29.87,NNW,336,3.0,7.0,70,0.00,,---,0.00,VWS V14.01,2013-07-22 06:39:00,
2013-07-21 23:44:00,61.3,51.5,29.89,NNW,336,2.0,7.0,70,0.00,,---,0.00,VWS V14.01,2013-07-22 06:44:00,
2013-07-21 23:49:00,61.3,51.8,29.89,NNW,336,2.0,7.0,71,0.00,,---,0.00,VWS V14.01,2013-07-22 06:49:00,
2013-07-21 23:54:00,61.3,51.5,29.87,NNW,336,1.0,7.0,70,0.00,,---,0.00,VWS V14.01,2013-07-22 06:54:00,
2013-07-21 23:59:00,61.3,51.8,29.89,NNW,336,3.0,7.0,71,0.00,,---,0.00,VWS V14.01,2013-07-22 06:59:00,